createdAt,value
2022-12-18T00:03:37.101Z,99012.13
2022-12-18T00:08:40.946Z,98998.25
2022-12-18T00:13:45.207Z,98993.03
2022-12-18T00:18:51.252Z,98988.69
2022-12-18T00:23:55.297Z,98973.09
2022-12-18T00:29:01.123Z,98974.81
2022-12-18T00:34:06.559Z,98980.00
2022-12-18T00:39:10.434Z,98967.88
2022-12-18T00:44:15.291Z,98957.47
2022-12-18T00:49:21.802Z,98956.56
2022-12-18T00:54:25.427Z,98944.47
2022-12-18T00:59:29.143Z,98935.78
2022-12-18T01:04:35.377Z,98907.16
2022-12-18T01:09:38.770Z,98908.88
2022-12-18T01:14:42.105Z,98896.72
2022-12-18T01:19:46.815Z,98885.47
2022-12-18T01:24:50.195Z,98884.56
2022-12-18T01:29:54.182Z,98875.91
2022-12-18T01:34:59.075Z,98877.63
2022-12-18T01:40:02.261Z,98877.66
2022-12-18T01:45:24.873Z,98881.13
2022-12-18T01:50:38.319Z,98869.00
2022-12-18T01:55:47.923Z,98889.81
2022-12-18T02:00:51.205Z,98875.91
2022-12-18T02:06:03.253Z,98868.13
2022-12-18T02:11:13.243Z,98858.59
2022-12-18T02:16:26.283Z,98867.22
2022-12-18T02:21:41.463Z,98837.78
2022-12-18T02:26:51.256Z,98866.38
2022-12-18T02:31:58.649Z,98888.94
2022-12-18T02:37:06.761Z,98875.91
2022-12-18T02:42:12.906Z,98879.38
2022-12-18T02:47:18.716Z,98893.25
2022-12-18T02:52:32.809Z,98874.16
2022-12-18T02:57:43.008Z,98886.31
2022-12-18T03:02:51.343Z,98871.59
2022-12-18T03:07:59.224Z,98882.84
2022-12-18T03:13:06.987Z,98888.03
2022-12-18T03:18:15.939Z,98877.63
2022-12-18T03:23:25.577Z,98838.56
2022-12-18T03:28:34.444Z,98876.75
2022-12-18T03:33:42.722Z,98881.09
2022-12-18T03:38:46.390Z,98871.56
2022-12-18T03:43:59.712Z,98880.25
2022-12-18T03:49:11.126Z,98887.19
2022-12-18T03:54:15.765Z,98882.00
2022-12-18T03:59:21.928Z,98900.22
2022-12-18T04:04:27.184Z,98893.28
2022-12-18T04:09:32.577Z,98914.09
2022-12-18T04:14:37.279Z,98916.69
2022-12-18T04:19:40.698Z,98926.25
2022-12-18T04:24:44.475Z,98943.59
2022-12-18T04:29:49.402Z,98939.25
2022-12-18T04:34:52.730Z,98943.56
2022-12-18T04:39:56.078Z,98952.25
2022-12-18T04:49:21.752Z,98976.56
2022-12-18T04:54:24.974Z,98990.44
2022-12-18T04:59:28.345Z,98991.31
2022-12-18T05:04:33.214Z,98999.09
2022-12-18T05:09:36.444Z,99017.31
2022-12-18T05:14:39.582Z,99021.63
2022-12-18T05:19:44.757Z,99016.44
2022-12-18T05:24:48.148Z,99015.56
2022-12-18T05:29:51.483Z,99039.00
2022-12-18T05:34:56.088Z,99055.47
2022-12-18T05:39:59.315Z,99051.13
2022-12-18T05:45:02.697Z,99051.13
2022-12-18T05:50:09.325Z,99075.41
2022-12-18T05:55:12.722Z,99089.28
2022-12-18T06:00:17.856Z,99092.75
2022-12-18T06:05:23.076Z,99089.28
2022-12-18T06:10:26.416Z,99091.88
2022-12-18T06:15:30.314Z,99116.16
2022-12-18T06:20:37.615Z,99131.78
2022-12-18T06:25:41.816Z,99156.03
2022-12-18T06:30:45.950Z,99151.75
2022-12-18T06:35:50.757Z,99177.78
2022-12-18T06:40:54.040Z,99150.03
2022-12-18T06:46:02.256Z,99181.28
2022-12-18T06:51:07.377Z,99196.91
2022-12-18T06:56:11.271Z,99213.41
2022-12-18T07:01:15.734Z,99211.66
2022-12-18T07:06:22.054Z,99198.63
2022-12-18T07:11:25.676Z,99234.25
2022-12-18T07:16:29.856Z,99249.91
2022-12-18T07:21:34.574Z,99253.38
2022-12-18T07:26:37.886Z,99250.75
2022-12-18T07:31:41.600Z,99249.88
2022-12-18T07:36:46.328Z,99268.13
2022-12-18T07:42:09.737Z,99270.78
2022-12-18T07:47:13.427Z,99292.47
2022-12-18T07:52:21.458Z,99291.66
2022-12-18T08:02:53.096Z,99308.16
2022-12-18T08:07:57.913Z,99328.13
2022-12-18T08:13:04.922Z,99341.13
2022-12-18T08:18:13.917Z,99330.69
2022-12-18T08:23:19.536Z,99330.75
2022-12-18T08:28:22.812Z,99335.97
2022-12-18T08:33:26.313Z,99347.25
2022-12-18T08:38:31.023Z,99347.25
2022-12-18T08:43:52.019Z,99357.66
2022-12-18T08:48:56.388Z,99363.72
2022-12-18T08:54:01.095Z,99368.94
2022-12-18T08:59:05.538Z,99392.38
2022-12-18T09:04:11.062Z,99401.97
2022-12-18T09:09:16.022Z,99408.03
2022-12-18T09:14:19.178Z,99407.16
2022-12-18T09:19:22.775Z,99415.81
2022-12-18T09:24:27.819Z,99421.94
2022-12-18T09:29:31.069Z,99432.34
2022-12-18T09:34:34.379Z,99436.72
2022-12-18T09:39:39.064Z,99430.66
2022-12-18T09:44:47.154Z,99443.72
2022-12-18T09:49:55.185Z,99448.09
2022-12-18T09:55:04.370Z,99454.19
2022-12-18T10:00:18.511Z,99458.53
2022-12-18T10:05:34.122Z,99463.69
2022-12-18T10:10:43.995Z,99473.28
2022-12-18T10:15:56.777Z,99472.41
2022-12-18T10:21:06.125Z,99476.78
2022-12-18T10:26:13.202Z,99480.28
2022-12-18T10:31:19.379Z,99482.84
2022-12-18T10:36:23.181Z,99487.19
2022-12-18T10:41:29.652Z,99506.28
2022-12-18T10:46:33.113Z,99534.09
2022-12-18T10:51:39.137Z,99557.56
2022-12-18T10:56:44.721Z,99533.22
2022-12-18T11:01:52.887Z,99542.78
2022-12-18T11:06:59.608Z,99549.75
2022-12-18T11:12:07.268Z,99548.03
2022-12-18T11:17:26.112Z,99553.19
2022-12-18T11:22:31.730Z,99554.97
2022-12-18T11:27:36.437Z,99569.75
2022-12-18T11:32:43.120Z,99571.47
2022-12-18T11:37:51.047Z,99584.53
2022-12-18T11:43:00.531Z,99579.25
2022-12-18T11:48:08.284Z,99598.41
2022-12-18T11:53:14.273Z,99606.25
2022-12-18T11:58:39.960Z,99615.78
2022-12-18T12:04:01.181Z,99618.38
2022-12-18T12:09:14.943Z,99632.22
2022-12-18T12:14:36.658Z,99644.31
2022-12-18T12:19:50.746Z,99651.25
2022-12-18T12:25:12.231Z,99665.13
2022-12-18T12:30:23.359Z,99668.59
2022-12-18T12:35:38.899Z,99676.38
2022-12-18T12:40:53.837Z,99693.72
2022-12-18T12:46:07.812Z,99703.31
2022-12-18T12:51:16.861Z,99699.81
2022-12-18T12:56:22.377Z,99719.81
2022-12-18T13:01:37.216Z,99719.75
2022-12-18T13:06:48.348Z,99727.50
2022-12-18T13:12:18.862Z,99740.63
2022-12-18T13:17:33.294Z,99763.19
2022-12-18T13:22:39.250Z,99764.94
2022-12-18T13:28:02.229Z,99771.88
2022-12-18T13:34:02.212Z,99790.97
2022-12-18T13:39:35.976Z,99797.00
2022-12-18T13:44:42.463Z,99819.56
2022-12-18T13:49:48.986Z,99821.31
2022-12-18T13:54:55.762Z,99829.19
2022-12-18T14:00:14.580Z,99846.53
2022-12-18T14:05:25.823Z,99829.00
2022-12-18T14:10:48.208Z,99869.16
2022-12-18T14:15:53.544Z,99869.13
2022-12-18T14:21:01.777Z,99877.88
2022-12-18T14:26:22.124Z,99890.94
2022-12-18T14:31:28.058Z,99895.31
2022-12-18T14:36:32.764Z,99906.63
2022-12-18T14:41:36.506Z,99917.91
2022-12-18T14:46:42.013Z,99921.41
2022-12-18T14:51:52.490Z,99894.28
2022-12-18T14:57:30.085Z,99930.94
2022-12-18T15:02:38.827Z,99945.72
2022-12-18T15:07:48.543Z,99950.97
2022-12-18T15:13:12.636Z,99970.97
2022-12-18T15:18:22.250Z,99971.81
2022-12-18T15:23:30.091Z,99964.91
2022-12-18T15:28:36.983Z,99986.66
2022-12-18T15:33:43.900Z,99973.53
2022-12-18T15:38:51.021Z,100001.38
2022-12-18T15:43:55.109Z,100001.34
2022-12-18T15:49:02.196Z,100011.72
2022-12-18T15:54:12.296Z,100002.78
2022-12-18T15:59:17.594Z,100020.34
2022-12-18T16:04:22.700Z,100035.97
2022-12-18T16:09:27.293Z,100055.00
2022-12-18T16:14:32.210Z,100044.31
2022-12-18T16:19:35.500Z,100072.28
2022-12-18T16:24:40.314Z,100077.38
2022-12-18T16:29:43.797Z,100082.44
2022-12-18T16:34:47.994Z,100100.59
2022-12-18T16:39:52.630Z,100113.59
2022-12-18T16:44:55.879Z,100113.47
2022-12-18T16:49:59.180Z,100129.81
2022-12-18T16:55:03.812Z,100131.47
2022-12-18T17:00:08.474Z,100144.38
2022-12-18T17:05:11.761Z,100160.66
2022-12-18T17:10:16.568Z,100160.59
2022-12-18T17:15:19.833Z,100170.94
2022-12-18T17:20:23.574Z,100171.75
2022-12-18T17:25:28.164Z,100192.50
2022-12-18T17:30:31.525Z,100188.06
2022-12-18T17:35:34.992Z,100189.69
2022-12-18T17:40:46.124Z,100207.81
2022-12-18T17:45:49.807Z,100221.69
2022-12-18T17:50:53.262Z,100238.09
2022-12-18T17:55:59.634Z,100262.97
2022-12-18T18:01:02.832Z,100252.22
2022-12-18T18:06:06.808Z,100266.72
2022-12-18T18:11:32.184Z,100258.31
2022-12-18T18:16:38.525Z,100295.69
2022-12-18T18:21:43.659Z,100286.44
2022-12-18T18:26:51.159Z,100299.88
2022-12-18T18:31:54.890Z,100319.75
2022-12-18T18:36:58.358Z,100336.59
2022-12-18T18:42:03.251Z,100343.94
2022-12-18T18:47:09.427Z,100351.41
2022-12-18T18:52:13.233Z,100363.25
2022-12-18T18:57:20.751Z,100366.63
2022-12-18T19:02:24.701Z,100381.91
2022-12-18T19:07:30.347Z,100392.94
2022-12-18T19:12:53.854Z,100404.03
2022-12-18T19:17:57.215Z,100404.63
2022-12-18T19:23:00.885Z,100419.94
2022-12-18T19:28:06.278Z,100437.75
2022-12-18T19:33:34.369Z,100449.53
2022-12-18T19:38:35.170Z,100457.84
2022-12-18T19:43:40.124Z,100462.69
2022-12-18T19:48:44.609Z,100470.75
2022-12-18T19:53:50.543Z,100487.44
2022-12-18T19:58:58.721Z,100483.44
2022-12-18T20:04:02.107Z,100493.09
2022-12-18T20:09:08.017Z,100498.53
2022-12-18T20:14:14.125Z,100502.31
2022-12-18T20:19:20.198Z,100510.41
2022-12-18T20:24:23.868Z,100521.22
2022-12-18T20:29:28.858Z,100528.50
2022-12-18T20:34:32.196Z,100527.84
2022-12-18T20:39:36.348Z,100541.47
2022-12-18T20:44:41.715Z,100540.25
2022-12-18T20:49:45.346Z,100539.88
2022-12-18T20:54:49.486Z,100545.44
2022-12-18T20:59:54.097Z,100540.72
2022-12-18T21:04:57.270Z,100555.06
2022-12-18T21:10:00.494Z,100573.63
2022-12-18T21:15:07.844Z,100573.19
2022-12-18T21:20:17.432Z,100573.66
2022-12-18T21:25:22.452Z,100575.91
2022-12-18T21:30:27.282Z,100578.91
2022-12-18T21:35:32.058Z,100583.09
2022-12-18T21:40:35.539Z,100598.28
2022-12-18T21:45:41.275Z,100604.00
2022-12-18T21:50:44.700Z,100605.63
2022-12-18T21:55:47.913Z,100612.09
2022-12-18T22:00:52.697Z,100599.59
2022-12-18T22:06:08.987Z,100614.09
2022-12-18T22:11:14.355Z,100624.91
2022-12-18T22:16:20.829Z,100637.63
2022-12-18T22:21:29.526Z,100636.69
2022-12-18T22:26:39.831Z,100650.00
2022-12-18T22:31:45.017Z,100648.91
2022-12-18T22:36:49.878Z,100637.31
2022-12-18T22:41:54.324Z,100649.41
2022-12-18T22:47:05.619Z,100661.16
2022-12-18T22:52:11.027Z,100661.97
2022-12-18T22:57:14.384Z,100661.91
2022-12-18T23:02:19.818Z,100667.66
2022-12-18T23:07:23.388Z,100686.34
2022-12-18T23:12:26.633Z,100680.06
2022-12-18T23:17:31.639Z,100687.78
2022-12-18T23:22:34.918Z,100685.88
2022-12-18T23:27:38.266Z,100692.66
2022-12-18T23:32:43.004Z,100694.09
2022-12-18T23:38:04.428Z,100711.16
2022-12-18T23:43:07.617Z,100700.69
2022-12-18T23:48:12.335Z,100712.94
2022-12-18T23:53:15.834Z,100724.44
2022-12-18T23:58:20.762Z,100693.06
